sensor_id;sensor_type;location;lat;lon;timestamp;pressure;altitude;pressure_sealevel;temperature;humidity
18819;BME280;9537;45.594;9.294;2022-12-07T00:00:29;99495.81;;;2.42;85.79
18819;BME280;9537;45.594;9.294;2022-12-07T00:01:31;99497.34;;;2.44;85.54
18819;BME280;9537;45.594;9.294;2022-12-07T00:02:34;99499.41;;;2.41;85.72
18819;BME280;9537;45.594;9.294;2022-12-07T00:03:36;99494.03;;;2.42;85.66
18819;BME280;9537;45.594;9.294;2022-12-07T00:04:39;99492.84;;;2.46;85.15
18819;BME280;9537;45.594;9.294;2022-12-07T00:05:42;99493.53;;;2.48;84.94
18819;BME280;9537;45.594;9.294;2022-12-07T00:06:45;99491.78;;;2.49;84.23
18819;BME280;9537;45.594;9.294;2022-12-07T00:07:47;99490.13;;;2.48;84.39
18819;BME280;9537;45.594;9.294;2022-12-07T00:08:49;99490.25;;;2.46;84.31
18819;BME280;9537;45.594;9.294;2022-12-07T00:09:51;99492.97;;;2.45;83.82
18819;BME280;9537;45.594;9.294;2022-12-07T00:10:53;99492.25;;;2.43;83.58
18819;BME280;9537;45.594;9.294;2022-12-07T00:11:55;99488.00;;;2.42;83.58
18819;BME280;9537;45.594;9.294;2022-12-07T00:12:57;99484.84;;;2.38;83.71
18819;BME280;9537;45.594;9.294;2022-12-07T00:13:59;99486.16;;;2.33;83.36
18819;BME280;9537;45.594;9.294;2022-12-07T00:15:02;99480.94;;;2.33;83.68
18819;BME280;9537;45.594;9.294;2022-12-07T00:16:05;99483.53;;;2.33;83.35
18819;BME280;9537;45.594;9.294;2022-12-07T00:17:07;99488.19;;;2.29;83.56
18819;BME280;9537;45.594;9.294;2022-12-07T00:18:09;99489.47;;;2.35;83.59
18819;BME280;9537;45.594;9.294;2022-12-07T00:19:11;99484.47;;;2.32;83.84
18819;BME280;9537;45.594;9.294;2022-12-07T00:20:13;99486.16;;;2.33;84.07
18819;BME280;9537;45.594;9.294;2022-12-07T00:21:17;99475.97;;;2.30;84.56
18819;BME280;9537;45.594;9.294;2022-12-07T00:22:20;99472.56;;;2.29;84.46
18819;BME280;9537;45.594;9.294;2022-12-07T00:23:21;99472.56;;;2.29;84.43
18819;BME280;9537;45.594;9.294;2022-12-07T00:24:23;99473.72;;;2.25;84.16
18819;BME280;9537;45.594;9.294;2022-12-07T00:25:24;99481.81;;;2.22;84.10
18819;BME280;9537;45.594;9.294;2022-12-07T00:26:28;99481.09;;;2.20;84.35
18819;BME280;9537;45.594;9.294;2022-12-07T00:27:30;99480.97;;;2.21;84.98
18819;BME280;9537;45.594;9.294;2022-12-07T00:28:32;99477.66;;;2.19;85.03
18819;BME280;9537;45.594;9.294;2022-12-07T00:29:34;99478.94;;;2.25;84.86
18819;BME280;9537;45.594;9.294;2022-12-07T00:30:37;99470.06;;;2.28;84.53
18819;BME280;9537;45.594;9.294;2022-12-07T00:31:38;99469.22;;;2.27;84.24
18819;BME280;9537;45.594;9.294;2022-12-07T00:32:40;99471.13;;;2.25;84.39
18819;BME280;9537;45.594;9.294;2022-12-07T00:33:43;99468.41;;;2.27;84.54
18819;BME280;9537;45.594;9.294;2022-12-07T00:34:44;99474.44;;;2.27;84.02
18819;BME280;9537;45.594;9.294;2022-12-07T00:35:46;99470.31;;;2.24;83.87
18819;BME280;9537;45.594;9.294;2022-12-07T00:36:49;99474.69;;;2.24;84.45
18819;BME280;9537;45.594;9.294;2022-12-07T00:37:51;99479.19;;;2.22;84.85
18819;BME280;9537;45.594;9.294;2022-12-07T00:38:53;99466.06;;;2.23;84.99
18819;BME280;9537;45.594;9.294;2022-12-07T00:39:55;99463.56;;;2.22;84.81
18819;BME280;9537;45.594;9.294;2022-12-07T00:40:57;99468.78;;;2.22;85.08
18819;BME280;9537;45.594;9.294;2022-12-07T00:42:00;99470.41;;;2.23;85.14
18819;BME280;9537;45.594;9.294;2022-12-07T00:43:01;99467.13;;;2.21;84.93
18819;BME280;9537;45.594;9.294;2022-12-07T00:44:03;99468.66;;;2.23;85.26
18819;BME280;9537;45.594;9.294;2022-12-07T00:45:04;99463.69;;;2.20;84.96
18819;BME280;9537;45.594;9.294;2022-12-07T00:46:07;99461.78;;;2.22;84.55
18819;BME280;9537;45.594;9.294;2022-12-07T00:47:09;99460.72;;;2.25;84.13
18819;BME280;9537;45.594;9.294;2022-12-07T00:48:11;99458.91;;;2.25;84.29
18819;BME280;9537;45.594;9.294;2022-12-07T00:49:12;99458.09;;;2.25;83.86
18819;BME280;9537;45.594;9.294;2022-12-07T00:50:14;99458.34;;;2.22;83.92
18819;BME280;9537;45.594;9.294;2022-12-07T00:51:17;99462.03;;;2.19;84.07
18819;BME280;9537;45.594;9.294;2022-12-07T00:52:21;99458.72;;;2.17;84.45
18819;BME280;9537;45.594;9.294;2022-12-07T00:53:22;99459.66;;;2.16;84.73
18819;BME280;9537;45.594;9.294;2022-12-07T00:54:24;99466.53;;;2.17;84.52
18819;BME280;9537;45.594;9.294;2022-12-07T00:55:25;99459.56;;;2.18;84.21
18819;BME280;9537;45.594;9.294;2022-12-07T00:56:28;99459.41;;;2.19;84.45
18819;BME280;9537;45.594;9.294;2022-12-07T00:57:31;99454.22;;;2.19;84.71
18819;BME280;9537;45.594;9.294;2022-12-07T00:58:32;99450.69;;;2.20;84.39
18819;BME280;9537;45.594;9.294;2022-12-07T00:59:34;99464.63;;;2.19;84.17
18819;BME280;9537;45.594;9.294;2022-12-07T01:00:37;99457.06;;;2.16;84.59
18819;BME280;9537;45.594;9.294;2022-12-07T01:01:40;99458.72;;;2.17;84.28
18819;BME280;9537;45.594;9.294;2022-12-07T01:02:42;99454.22;;;2.19;84.22
18819;BME280;9537;45.594;9.294;2022-12-07T01:03:43;99450.69;;;2.20;84.12
18819;BME280;9537;45.594;9.294;2022-12-07T01:04:45;99455.88;;;2.20;84.49
18819;BME280;9537;45.594;9.294;2022-12-07T01:05:51;99456.56;;;2.22;84.23
18819;BME280;9537;45.594;9.294;2022-12-07T01:06:53;99456.25;;;2.16;83.89
18819;BME280;9537;45.594;9.294;2022-12-07T01:07:55;99453.75;;;2.14;84.14
18819;BME280;9537;45.594;9.294;2022-12-07T01:08:58;99454.13;;;2.10;83.75
18819;BME280;9537;45.594;9.294;2022-12-07T01:10:00;99455.91;;;2.09;84.29
18819;BME280;9537;45.594;9.294;2022-12-07T01:11:03;99459.72;;;2.05;83.77
18819;BME280;9537;45.594;9.294;2022-12-07T01:12:06;99459.47;;;2.08;83.69
18819;BME280;9537;45.594;9.294;2022-12-07T01:13:08;99458.63;;;2.08;84.39
18819;BME280;9537;45.594;9.294;2022-12-07T01:14:09;99461.50;;;2.05;83.88
18819;BME280;9537;45.594;9.294;2022-12-07T01:15:11;99455.72;;;2.01;84.34
18819;BME280;9537;45.594;9.294;2022-12-07T01:16:14;99463.28;;;2.04;84.39
18819;BME280;9537;45.594;9.294;2022-12-07T01:17:16;99452.97;;;2.02;84.47
18819;BME280;9537;45.594;9.294;2022-12-07T01:18:17;99453.09;;;2.01;83.81
18819;BME280;9537;45.594;9.294;2022-12-07T01:19:19;99462.22;;;1.95;84.60
18819;BME280;9537;45.594;9.294;2022-12-07T01:20:20;99454.16;;;1.98;84.94
18819;BME280;9537;45.594;9.294;2022-12-07T01:21:25;99456.63;;;2.00;84.63
18819;BME280;9537;45.594;9.294;2022-12-07T01:22:26;99452.03;;;2.03;84.79
18819;BME280;9537;45.594;9.294;2022-12-07T01:23:31;99441.38;;;2.07;84.53
18819;BME280;9537;45.594;9.294;2022-12-07T01:24:33;99450.25;;;2.04;83.99
18819;BME280;9537;45.594;9.294;2022-12-07T01:25:35;99443.97;;;2.07;84.56
18819;BME280;9537;45.594;9.294;2022-12-07T01:26:36;99439.00;;;2.03;84.20
18819;BME280;9537;45.594;9.294;2022-12-07T01:27:38;99445.97;;;2.03;84.65
18819;BME280;9537;45.594;9.294;2022-12-07T01:28:40;99446.81;;;2.03;84.49
18819;BME280;9537;45.594;9.294;2022-12-07T01:29:42;99455.47;;;2.04;84.55
18819;BME280;9537;45.594;9.294;2022-12-07T01:30:43;99457.00;;;2.07;84.73
18819;BME280;9537;45.594;9.294;2022-12-07T01:31:48;99455.47;;;2.04;84.61
18819;BME280;9537;45.594;9.294;2022-12-07T01:32:49;99463.03;;;2.07;83.92
18819;BME280;9537;45.594;9.294;2022-12-07T01:33:53;99454.75;;;2.02;84.47
18819;BME280;9537;45.594;9.294;2022-12-07T01:34:55;99455.56;;;2.02;84.01
18819;BME280;9537;45.594;9.294;2022-12-07T01:36:01;99462.44;;;2.03;84.44
18819;BME280;9537;45.594;9.294;2022-12-07T01:37:02;99453.34;;;1.98;84.03
18819;BME280;9537;45.594;9.294;2022-12-07T01:38:05;99461.75;;;2.01;84.31
18819;BME280;9537;45.594;9.294;2022-12-07T01:39:09;99459.97;;;2.02;84.01
18819;BME280;9537;45.594;9.294;2022-12-07T01:40:12;99456.38;;;2.03;83.54
18819;BME280;9537;45.594;9.294;2022-12-07T01:41:14;99458.31;;;2.01;83.60
18819;BME280;9537;45.594;9.294;2022-12-07T01:42:16;99460.91;;;2.01;83.09
18819;BME280;9537;45.594;9.294;2022-12-07T01:43:19;99453.22;;;1.99;83.51
18819;BME280;9537;45.594;9.294;2022-12-07T01:44:23;99460.19;;;1.99;83.13
18819;BME280;9537;45.594;9.294;2022-12-07T01:45:42;99459.25;;;2.00;83.74
18819;BME280;9537;45.594;9.294;2022-12-07T01:46:45;99453.22;;;1.99;84.05
18819;BME280;9537;45.594;9.294;2022-12-07T01:47:50;99459.25;;;2.00;84.30
18819;BME280;9537;45.594;9.294;2022-12-07T01:48:52;99455.81;;;1.99;83.77
18819;BME280;9537;45.594;9.294;2022-12-07T01:49:54;99455.72;;;2.01;84.39
18819;BME280;9537;45.594;9.294;2022-12-07T01:50:56;99452.38;;;1.99;84.51
18819;BME280;9537;45.594;9.294;2022-12-07T01:52:09;99452.38;;;1.99;84.25
18819;BME280;9537;45.594;9.294;2022-12-07T01:53:14;99454.16;;;1.98;83.75
18819;BME280;9537;45.594;9.294;2022-12-07T01:54:20;99450.84;;;1.96;83.91
18819;BME280;9537;45.594;9.294;2022-12-07T01:55:22;99456.63;;;2.00;83.97
18819;BME280;9537;45.594;9.294;2022-12-07T01:56:26;99456.53;;;2.01;83.83
18819;BME280;9537;45.594;9.294;2022-12-07T01:57:30;99451.69;;;1.97;83.92
18819;BME280;9537;45.594;9.294;2022-12-07T01:58:33;99455.34;;;1.94;83.81
18819;BME280;9537;45.594;9.294;2022-12-07T01:59:35;99461.41;;;1.95;83.64
18819;BME280;9537;45.594;9.294;2022-12-07T02:00:37;99458.31;;;2.01;83.43
18819;BME280;9537;45.594;9.294;2022-12-07T02:01:39;99450.59;;;1.99;83.39
18819;BME280;9537;45.594;9.294;2022-12-07T02:02:44;99449.69;;;2.00;83.59
18819;BME280;9537;45.594;9.294;2022-12-07T02:03:48;99448.00;;;1.99;83.62
18819;BME280;9537;45.594;9.294;2022-12-07T02:04:50;99450.59;;;1.99;83.00
18819;BME280;9537;45.594;9.294;2022-12-07T02:05:54;99445.84;;;2.05;83.33
18819;BME280;9537;45.594;9.294;2022-12-07T02:06:56;99446.94;;;2.02;83.50
18819;BME280;9537;45.594;9.294;2022-12-07T02:07:59;99448.13;;;1.98;83.21
18819;BME280;9537;45.594;9.294;2022-12-07T02:09:00;99441.66;;;1.92;83.14
18819;BME280;9537;45.594;9.294;2022-12-07T02:10:14;99446.97;;;1.91;83.83
18819;BME280;9537;45.594;9.294;2022-12-07T02:11:15;99444.59;;;1.88;83.51
18819;BME280;9537;45.594;9.294;2022-12-07T02:12:18;99442.13;;;1.86;83.45
18819;BME280;9537;45.594;9.294;2022-12-07T02:13:21;99444.75;;;1.86;84.18
18819;BME280;9537;45.594;9.294;2022-12-07T02:14:24;99445.56;;;1.87;83.60
18819;BME280;9537;45.594;9.294;2022-12-07T02:15:28;99443.06;;;1.85;83.82
18819;BME280;9537;45.594;9.294;2022-12-07T02:16:39;99442.75;;;1.78;84.15
18819;BME280;9537;45.594;9.294;2022-12-07T02:17:51;99444.13;;;1.83;83.67
18819;BME280;9537;45.594;9.294;2022-12-07T02:19:08;99442.50;;;1.82;83.87
18819;BME280;9537;45.594;9.294;2022-12-07T02:20:26;99445.34;;;1.78;83.71
18819;BME280;9537;45.594;9.294;2022-12-07T02:21:34;99438.84;;;1.73;83.69
18819;BME280;9537;45.594;9.294;2022-12-07T02:23:23;99451.72;;;1.74;84.07
18819;BME280;9537;45.594;9.294;2022-12-07T02:24:43;99442.97;;;1.75;83.32
18819;BME280;9537;45.594;9.294;2022-12-07T02:26:02;99447.22;;;1.76;83.30
18819;BME280;9537;45.594;9.294;2022-12-07T02:27:40;99440.00;;;1.80;83.31
18819;BME280;9537;45.594;9.294;2022-12-07T02:28:56;99433.13;;;1.79;83.46
18819;BME280;9537;45.594;9.294;2022-12-07T02:30:03;99437.28;;;1.82;83.24
18819;BME280;9537;45.594;9.294;2022-12-07T02:31:11;99433.50;;;1.74;83.62
18819;BME280;9537;45.594;9.294;2022-12-07T02:32:17;99434.34;;;1.75;83.74
18819;BME280;9537;45.594;9.294;2022-12-07T02:33:27;99431.28;;;1.70;83.88
18819;BME280;9537;45.594;9.294;2022-12-07T02:34:37;99438.03;;;1.72;83.68
18819;BME280;9537;45.594;9.294;2022-12-07T02:35:46;99432.91;;;1.71;83.58
18819;BME280;9537;45.594;9.294;2022-12-07T02:36:53;99434.22;;;1.76;84.40
18819;BME280;9537;45.594;9.294;2022-12-07T02:38:02;99439.41;;;1.76;83.81
18819;BME280;9537;45.594;9.294;2022-12-07T02:39:09;99437.78;;;1.75;83.95
18819;BME280;9537;45.594;9.294;2022-12-07T02:40:18;99444.53;;;1.78;84.50
18819;BME280;9537;45.594;9.294;2022-12-07T02:41:23;99441.91;;;1.78;84.06
18819;BME280;9537;45.594;9.294;2022-12-07T02:42:32;99437.53;;;1.78;84.47
18819;BME280;9537;45.594;9.294;2022-12-07T02:43:39;99438.25;;;1.80;84.42
18819;BME280;9537;45.594;9.294;2022-12-07T02:44:43;99444.13;;;1.83;84.01
18819;BME280;9537;45.594;9.294;2022-12-07T02:45:47;99436.34;;;1.71;83.94
18819;BME280;9537;45.594;9.294;2022-12-07T02:46:54;99437.88;;;1.74;84.25
18819;BME280;9537;45.594;9.294;2022-12-07T02:47:58;99437.78;;;1.75;83.49
18819;BME280;9537;45.594;9.294;2022-12-07T02:49:03;99433.97;;;1.79;83.63
18819;BME280;9537;45.594;9.294;2022-12-07T02:50:05;99437.28;;;1.82;83.72
18819;BME280;9537;45.594;9.294;2022-12-07T02:51:08;99433.03;;;1.80;83.80
18819;BME280;9537;45.594;9.294;2022-12-07T02:52:09;99434.94;;;1.78;83.39
18819;BME280;9537;45.594;9.294;2022-12-07T02:53:29;99434.53;;;1.83;83.46
18819;BME280;9537;45.594;9.294;2022-12-07T02:54:31;99426.97;;;1.80;83.41
18819;BME280;9537;45.594;9.294;2022-12-07T02:55:37;99434.09;;;1.78;82.72
18819;BME280;9537;45.594;9.294;2022-12-07T02:56:46;99429.00;;;1.76;83.39
18819;BME280;9537;45.594;9.294;2022-12-07T02:58:05;99428.28;;;1.74;83.51
18819;BME280;9537;45.594;9.294;2022-12-07T02:59:17;99428.28;;;1.74;83.57
18819;BME280;9537;45.594;9.294;2022-12-07T03:00:22;99430.69;;;1.77;83.67
18819;BME280;9537;45.594;9.294;2022-12-07T03:01:28;99428.06;;;1.77;83.65
18819;BME280;9537;45.594;9.294;2022-12-07T03:02:44;99431.34;;;1.79;83.15
18819;BME280;9537;45.594;9.294;2022-12-07T03:03:54;99426.28;;;1.78;83.63
18819;BME280;9537;45.594;9.294;2022-12-07T03:05:09;99420.63;;;1.73;83.63
18819;BME280;9537;45.594;9.294;2022-12-07T03:06:17;99424.88;;;1.74;83.33
18819;BME280;9537;45.594;9.294;2022-12-07T03:07:29;99424.63;;;1.77;83.74
18819;BME280;9537;45.594;9.294;2022-12-07T03:08:43;99423.94;;;1.75;83.14
18819;BME280;9537;45.594;9.294;2022-12-07T03:09:51;99419.91;;;1.71;83.13
18819;BME280;9537;45.594;9.294;2022-12-07T03:10:57;99417.44;;;1.69;82.81
18819;BME280;9537;45.594;9.294;2022-12-07T03:12:06;99417.19;;;1.72;82.50
18819;BME280;9537;45.594;9.294;2022-12-07T03:13:14;99419.06;;;1.70;82.81
18819;BME280;9537;45.594;9.294;2022-12-07T03:14:22;99416.59;;;1.69;83.00
18819;BME280;9537;45.594;9.294;2022-12-07T03:15:32;99420.16;;;1.68;82.87
18819;BME280;9537;45.594;9.294;2022-12-07T03:16:38;99414.38;;;1.64;82.55
18819;BME280;9537;45.594;9.294;2022-12-07T03:17:44;99422.19;;;1.64;82.70
18819;BME280;9537;45.594;9.294;2022-12-07T03:18:50;99413.91;;;1.59;83.17
18819;BME280;9537;45.594;9.294;2022-12-07T03:19:58;99414.03;;;1.57;83.34
18819;BME280;9537;45.594;9.294;2022-12-07T03:21:04;99411.31;;;1.48;83.93
18819;BME280;9537;45.594;9.294;2022-12-07T03:22:11;99417.56;;;1.45;83.62
18819;BME280;9537;45.594;9.294;2022-12-07T03:23:12;99412.97;;;1.49;84.08
18819;BME280;9537;45.594;9.294;2022-12-07T03:24:19;99415.34;;;1.52;84.04
18819;BME280;9537;45.594;9.294;2022-12-07T03:25:21;99417.09;;;1.51;83.61
18819;BME280;9537;45.594;9.294;2022-12-07T03:26:30;99413.81;;;1.49;83.95
18819;BME280;9537;45.594;9.294;2022-12-07T03:27:34;99413.66;;;1.51;84.13
18819;BME280;9537;45.594;9.294;2022-12-07T03:28:46;99414.25;;;1.54;83.51
18819;BME280;9537;45.594;9.294;2022-12-07T03:29:50;99417.00;;;1.53;84.03
18819;BME280;9537;45.594;9.294;2022-12-07T03:31:00;99413.19;;;1.57;83.55
18819;BME280;9537;45.594;9.294;2022-12-07T03:32:05;99414.84;;;1.58;84.12
18819;BME280;9537;45.594;9.294;2022-12-07T03:33:12;99411.88;;;1.51;83.47
18819;BME280;9537;45.594;9.294;2022-12-07T03:34:16;99411.88;;;1.51;83.51
18819;BME280;9537;45.594;9.294;2022-12-07T03:35:24;99405.63;;;1.54;84.24
18819;BME280;9537;45.594;9.294;2022-12-07T03:36:30;99410.47;;;1.58;83.32
18819;BME280;9537;45.594;9.294;2022-12-07T03:37:37;99403.00;;;1.54;83.31
18819;BME280;9537;45.594;9.294;2022-12-07T03:38:42;99405.63;;;1.54;83.96
18819;BME280;9537;45.594;9.294;2022-12-07T03:39:57;99403.00;;;1.54;83.63
18819;BME280;9537;45.594;9.294;2022-12-07T03:41:05;99402.09;;;1.55;83.42
18819;BME280;9537;45.594;9.294;2022-12-07T03:42:09;99404.44;;;1.58;83.92
18819;BME280;9537;45.594;9.294;2022-12-07T03:43:11;99405.38;;;1.57;83.51
18819;BME280;9537;45.594;9.294;2022-12-07T03:44:15;99407.16;;;1.56;83.16
18819;BME280;9537;45.594;9.294;2022-12-07T03:45:17;99414.13;;;1.56;83.59
18819;BME280;9537;45.594;9.294;2022-12-07T03:46:31;99414.03;;;1.57;83.20
18819;BME280;9537;45.594;9.294;2022-12-07T03:47:42;99408.59;;;1.61;83.11
18819;BME280;9537;45.594;9.294;2022-12-07T03:48:55;99411.44;;;1.57;83.01
18819;BME280;9537;45.594;9.294;2022-12-07T03:50:00;99401.38;;;1.53;83.34
18819;BME280;9537;45.594;9.294;2022-12-07T03:51:11;99399.59;;;1.53;82.98
18819;BME280;9537;45.594;9.294;2022-12-07T03:52:19;99394.28;;;1.55;83.14
18819;BME280;9537;45.594;9.294;2022-12-07T03:53:29;99396.63;;;1.58;83.29
18819;BME280;9537;45.594;9.294;2022-12-07T03:54:36;99396.75;;;1.56;83.52
18819;BME280;9537;45.594;9.294;2022-12-07T03:55:42;99397.69;;;1.55;83.74
18819;BME280;9537;45.594;9.294;2022-12-07T03:56:46;99398.53;;;1.56;83.92
18819;BME280;9537;45.594;9.294;2022-12-07T03:57:53;99391.91;;;1.52;83.67
18819;BME280;9537;45.594;9.294;2022-12-07T03:58:56;99392.75;;;1.52;83.63
18819;BME280;9537;45.594;9.294;2022-12-07T03:59:58;99395.34;;;1.52;83.83
18819;BME280;9537;45.594;9.294;2022-12-07T04:01:00;99391.53;;;1.56;84.12
18819;BME280;9537;45.594;9.294;2022-12-07T04:02:05;99394.03;;;1.58;83.37
18819;BME280;9537;45.594;9.294;2022-12-07T04:03:07;99393.31;;;1.56;83.83
18819;BME280;9537;45.594;9.294;2022-12-07T04:04:09;99394.28;;;1.55;83.50
18819;BME280;9537;45.594;9.294;2022-12-07T04:05:11;99393.22;;;1.57;83.57
18819;BME280;9537;45.594;9.294;2022-12-07T04:06:13;99385.41;;;1.57;83.24
18819;BME280;9537;45.594;9.294;2022-12-07T04:07:14;99392.09;;;1.60;82.64
18819;BME280;9537;45.594;9.294;2022-12-07T04:08:16;99391.44;;;1.58;82.48
18819;BME280;9537;45.594;9.294;2022-12-07T04:09:17;99385.63;;;1.54;82.65
18819;BME280;9537;45.594;9.294;2022-12-07T04:10:20;99381.00;;;1.58;83.18
18819;BME280;9537;45.594;9.294;2022-12-07T04:11:21;99378.53;;;1.56;83.00
18819;BME280;9537;45.594;9.294;2022-12-07T04:12:23;99382.78;;;1.57;83.01
18819;BME280;9537;45.594;9.294;2022-12-07T04:13:25;99387.88;;;1.59;82.70
18819;BME280;9537;45.594;9.294;2022-12-07T04:14:27;99380.88;;;1.60;82.69
18819;BME280;9537;45.594;9.294;2022-12-07T04:15:28;99381.94;;;1.57;82.52
18819;BME280;9537;45.594;9.294;2022-12-07T04:16:29;99387.50;;;1.64;82.20
18819;BME280;9537;45.594;9.294;2022-12-07T04:17:33;99378.66;;;1.55;81.93
18819;BME280;9537;45.594;9.294;2022-12-07T04:18:34;99380.66;;;1.51;81.93
18819;BME280;9537;45.594;9.294;2022-12-07T04:19:36;99375.84;;;1.47;81.83
18819;BME280;9537;45.594;9.294;2022-12-07T04:20:37;99380.31;;;1.45;82.19
18819;BME280;9537;45.594;9.294;2022-12-07T04:21:39;99372.75;;;1.42;82.01
18819;BME280;9537;45.594;9.294;2022-12-07T04:22:40;99375.03;;;1.35;82.82
18819;BME280;9537;45.594;9.294;2022-12-07T04:23:43;99366.75;;;1.30;83.08
18819;BME280;9537;45.594;9.294;2022-12-07T04:24:44;99369.47;;;1.28;83.32
18819;BME280;9537;45.594;9.294;2022-12-07T04:25:48;99376.19;;;1.31;83.08
18819;BME280;9537;45.594;9.294;2022-12-07T04:26:49;99375.13;;;1.33;82.94
18819;BME280;9537;45.594;9.294;2022-12-07T04:27:51;99372.88;;;1.40;82.79
18819;BME280;9537;45.594;9.294;2022-12-07T04:28:52;99363.31;;;1.41;82.80
18819;BME280;9537;45.594;9.294;2022-12-07T04:29:54;99366.03;;;1.39;83.29
18819;BME280;9537;45.594;9.294;2022-12-07T04:30:56;99368.63;;;1.39;83.19
18819;BME280;9537;45.594;9.294;2022-12-07T04:31:58;99361.63;;;1.40;83.17
18819;BME280;9537;45.594;9.294;2022-12-07T04:33:00;99360.56;;;1.42;82.93
18819;BME280;9537;45.594;9.294;2022-12-07T04:34:03;99356.19;;;1.43;83.14
18819;BME280;9537;45.594;9.294;2022-12-07T04:35:05;99359.75;;;1.42;83.56
18819;BME280;9537;45.594;9.294;2022-12-07T04:36:07;99361.78;;;1.38;84.13
18819;BME280;9537;45.594;9.294;2022-12-07T04:37:08;99351.38;;;1.38;84.48
18819;BME280;9537;45.594;9.294;2022-12-07T04:38:11;99352.91;;;1.41;84.63
18819;BME280;9537;45.594;9.294;2022-12-07T04:39:18;99358.09;;;1.41;84.18
18819;BME280;9537;45.594;9.294;2022-12-07T04:40:20;99360.81;;;1.39;84.41
18819;BME280;9537;45.594;9.294;2022-12-07T04:41:22;99349.44;;;1.40;84.56
18819;BME280;9537;45.594;9.294;2022-12-07T04:42:27;99360.56;;;1.42;84.30
18819;BME280;9537;45.594;9.294;2022-12-07T04:43:28;99355.59;;;1.39;83.47
18819;BME280;9537;45.594;9.294;2022-12-07T04:44:30;99359.41;;;1.35;83.31
18819;BME280;9537;45.594;9.294;2022-12-07T04:45:32;99358.59;;;1.34;83.16
18819;BME280;9537;45.594;9.294;2022-12-07T04:46:34;99356.00;;;1.34;83.31
18819;BME280;9537;45.594;9.294;2022-12-07T04:47:35;99361.19;;;1.34;83.13
18819;BME280;9537;45.594;9.294;2022-12-07T04:48:39;99359.28;;;1.37;83.64
18819;BME280;9537;45.594;9.294;2022-12-07T04:49:40;99358.22;;;1.39;83.65
18819;BME280;9537;45.594;9.294;2022-12-07T04:50:42;99360.94;;;1.38;83.34
18819;BME280;9537;45.594;9.294;2022-12-07T04:51:43;99363.56;;;1.38;83.52
18819;BME280;9537;45.594;9.294;2022-12-07T04:52:46;99363.16;;;1.42;83.28
18819;BME280;9537;45.594;9.294;2022-12-07T04:53:47;99368.63;;;1.39;82.81
18819;BME280;9537;45.594;9.294;2022-12-07T04:54:50;99372.03;;;1.40;82.57
18819;BME280;9537;45.594;9.294;2022-12-07T04:55:51;99364.47;;;1.37;82.83
18819;BME280;9537;45.594;9.294;2022-12-07T04:56:54;99366.63;;;1.31;82.08
18819;BME280;9537;45.594;9.294;2022-12-07T04:57:55;99369.59;;;1.27;82.63
18819;BME280;9537;45.594;9.294;2022-12-07T04:58:57;99365.69;;;1.21;82.07
18819;BME280;9537;45.594;9.294;2022-12-07T04:59:58;99374.66;;;1.17;82.54
18819;BME280;9537;45.594;9.294;2022-12-07T05:01:00;99369.28;;;1.09;82.43
18819;BME280;9537;45.594;9.294;2022-12-07T05:02:01;99368.06;;;1.13;82.87
18819;BME280;9537;45.594;9.294;2022-12-07T05:03:04;99373.28;;;1.13;82.96
18819;BME280;9537;45.594;9.294;2022-12-07T05:04:07;99371.63;;;1.12;83.86
18819;BME280;9537;45.594;9.294;2022-12-07T05:05:10;99374.09;;;1.13;83.95
18819;BME280;9537;45.594;9.294;2022-12-07T05:06:11;99370.44;;;1.16;84.21
18819;BME280;9537;45.594;9.294;2022-12-07T05:07:13;99378.00;;;1.19;84.46
18819;BME280;9537;45.594;9.294;2022-12-07T05:08:14;99373.63;;;1.20;83.77
18819;BME280;9537;45.594;9.294;2022-12-07T05:09:16;99372.78;;;1.19;84.00
18819;BME280;9537;45.594;9.294;2022-12-07T05:10:17;99378.81;;;1.20;83.57
18819;BME280;9537;45.594;9.294;2022-12-07T05:11:20;99381.31;;;1.21;83.65
18819;BME280;9537;45.594;9.294;2022-12-07T05:12:41;99381.16;;;1.23;83.74
18819;BME280;9537;45.594;9.294;2022-12-07T05:13:43;99383.78;;;1.23;83.45
18819;BME280;9537;45.594;9.294;2022-12-07T05:14:44;99380.00;;;1.27;83.67
18819;BME280;9537;45.594;9.294;2022-12-07T05:15:47;99379.19;;;1.26;82.93
18819;BME280;9537;45.594;9.294;2022-12-07T05:16:49;99378.47;;;1.24;83.46
18819;BME280;9537;45.594;9.294;2022-12-07T05:17:52;99378.81;;;1.20;83.22
18819;BME280;9537;45.594;9.294;2022-12-07T05:18:53;99375.88;;;1.24;83.74
18819;BME280;9537;45.594;9.294;2022-12-07T05:19:57;99377.25;;;1.28;83.55
18819;BME280;9537;45.594;9.294;2022-12-07T05:20:58;99375.38;;;1.30;82.87
18819;BME280;9537;45.594;9.294;2022-12-07T05:22:00;99372.78;;;1.30;83.06
18819;BME280;9537;45.594;9.294;2022-12-07T05:23:02;99380.81;;;1.27;82.15
18819;BME280;9537;45.594;9.294;2022-12-07T05:24:05;99370.66;;;1.24;82.78
18819;BME280;9537;45.594;9.294;2022-12-07T05:25:07;99370.09;;;1.21;82.49
18819;BME280;9537;45.594;9.294;2022-12-07T05:26:09;99373.63;;;1.20;82.52
18819;BME280;9537;45.594;9.294;2022-12-07T05:27:10;99375.06;;;1.12;82.40
18819;BME280;9537;45.594;9.294;2022-12-07T05:28:12;99375.53;;;1.06;82.53
18819;BME280;9537;45.594;9.294;2022-12-07T05:29:15;99375.88;;;1.02;83.29
18819;BME280;9537;45.594;9.294;2022-12-07T05:30:18;99377.53;;;1.03;83.45
18819;BME280;9537;45.594;9.294;2022-12-07T05:31:19;99371.41;;;1.04;83.19
18819;BME280;9537;45.594;9.294;2022-12-07T05:32:21;99380.25;;;1.01;83.69
18819;BME280;9537;45.594;9.294;2022-12-07T05:33:23;99371.16;;;0.96;83.69
18819;BME280;9537;45.594;9.294;2022-12-07T05:34:24;99380.50;;;0.98;83.57
18819;BME280;9537;45.594;9.294;2022-12-07T05:35:28;99379.53;;;0.99;83.56
18819;BME280;9537;45.594;9.294;2022-12-07T05:36:29;99384.63;;;1.01;83.24
18819;BME280;9537;45.594;9.294;2022-12-07T05:37:32;99381.31;;;0.99;84.29
18819;BME280;9537;45.594;9.294;2022-12-07T05:38:34;99383.56;;;1.03;83.89
18819;BME280;9537;45.594;9.294;2022-12-07T05:39:36;99384.41;;;1.04;84.03
18819;BME280;9537;45.594;9.294;2022-12-07T05:40:41;99393.03;;;1.04;83.42
18819;BME280;9537;45.594;9.294;2022-12-07T05:41:43;99383.09;;;0.98;82.98
18819;BME280;9537;45.594;9.294;2022-12-07T05:43:03;99390.53;;;0.92;83.25
18819;BME280;9537;45.594;9.294;2022-12-07T05:44:05;99389.47;;;0.94;82.97
18819;BME280;9537;45.594;9.294;2022-12-07T05:45:07;99389.34;;;0.96;83.40
18819;BME280;9537;45.594;9.294;2022-12-07T05:46:10;99395.28;;;0.98;83.57
18819;BME280;9537;45.594;9.294;2022-12-07T05:47:13;99388.78;;;1.03;82.79
18819;BME280;9537;45.594;9.294;2022-12-07T05:48:15;99382.72;;;1.03;83.20
18819;BME280;9537;45.594;9.294;2022-12-07T05:49:16;99388.16;;;1.00;82.68
18819;BME280;9537;45.594;9.294;2022-12-07T05:50:18;99392.53;;;0.99;83.47